createdAt,value
2023-02-22T00:00:44.657Z,68.47
2023-02-22T00:03:16.270Z,69.02
2023-02-22T00:05:46.956Z,68.94
2023-02-22T00:08:15.282Z,68.93
2023-02-22T00:10:41.786Z,70.12
2023-02-22T00:13:10.367Z,69.93
2023-02-22T00:15:37.212Z,69.83
2023-02-22T00:18:04.834Z,70.62
2023-02-22T00:20:31.251Z,70.16
2023-02-22T00:22:57.698Z,70.61
2023-02-22T00:25:24.855Z,70.70
2023-02-22T00:27:52.865Z,69.73
2023-02-22T00:30:26.628Z,70.18
2023-02-22T00:32:55.891Z,70.70
2023-02-22T00:35:25.397Z,70.22
2023-02-22T00:37:54.889Z,70.97
2023-02-22T00:40:23.915Z,70.64
2023-02-22T00:42:51.062Z,70.48
2023-02-22T00:45:22.051Z,70.42
2023-02-22T00:47:49.842Z,70.79
2023-02-22T00:50:17.535Z,70.25
2023-02-22T00:52:45.007Z,70.25
2023-02-22T00:55:17.410Z,70.58
2023-02-22T00:57:43.870Z,70.54
2023-02-22T01:00:17.100Z,70.38
2023-02-22T01:02:45.041Z,70.42
2023-02-22T01:05:14.116Z,70.13
2023-02-22T01:07:41.185Z,70.30
2023-02-22T01:10:08.991Z,70.00
2023-02-22T01:12:36.202Z,70.25
2023-02-22T01:15:10.292Z,70.28
2023-02-22T01:17:38.616Z,70.21
2023-02-22T01:20:10.409Z,70.23
2023-02-22T01:22:37.438Z,71.15
2023-02-22T01:25:06.285Z,70.48
2023-02-22T01:27:33.666Z,71.02
2023-02-22T01:30:00.413Z,71.53
2023-02-22T01:32:26.900Z,70.98
2023-02-22T01:34:54.014Z,71.21
2023-02-22T01:37:20.420Z,71.22
2023-02-22T01:39:47.326Z,72.02
2023-02-22T01:42:13.744Z,71.74
2023-02-22T01:44:41.487Z,71.81
2023-02-22T01:47:10.931Z,71.79
2023-02-22T01:49:50.618Z,72.42
2023-02-22T01:52:20.374Z,72.05
2023-02-22T01:54:58.148Z,72.39
2023-02-22T01:57:37.561Z,72.20
2023-02-22T02:00:11.175Z,72.16
2023-02-22T02:02:45.924Z,71.69
2023-02-22T02:05:13.924Z,71.57
2023-02-22T02:07:41.310Z,72.42
2023-02-22T02:10:14.281Z,72.35
2023-02-22T02:12:47.593Z,72.90
2023-02-22T02:15:21.093Z,72.20
2023-02-22T02:17:49.992Z,72.86
2023-02-22T02:20:25.080Z,72.78
2023-02-22T02:23:14.902Z,72.84
2023-02-22T02:26:03.929Z,72.07
2023-02-22T02:28:47.537Z,71.94
2023-02-22T02:31:56.226Z,72.27
2023-02-22T02:34:43.083Z,72.17
2023-02-22T02:37:21.937Z,72.67
2023-02-22T02:40:17.809Z,72.86
2023-02-22T02:42:55.181Z,73.12
2023-02-22T02:45:28.881Z,72.81
2023-02-22T02:47:58.683Z,73.07
2023-02-22T02:50:36.773Z,73.26
2023-02-22T02:53:07.408Z,73.79
2023-02-22T02:55:36.564Z,73.21
2023-02-22T02:58:07.598Z,72.67
2023-02-22T03:00:41.066Z,72.53
2023-02-22T03:03:25.894Z,73.07
2023-02-22T03:06:01.807Z,73.44
2023-02-22T03:08:41.999Z,73.45
2023-02-22T03:11:29.147Z,73.45
2023-02-22T03:14:11.052Z,74.22
2023-02-22T03:17:05.104Z,74.77
2023-02-22T03:19:38.257Z,74.90
2023-02-22T03:22:18.100Z,74.22
2023-02-22T03:24:58.926Z,74.28
2023-02-22T03:27:33.811Z,74.68
2023-02-22T03:30:07.688Z,74.83
2023-02-22T03:32:38.295Z,74.83
2023-02-22T03:35:07.466Z,75.19
2023-02-22T03:37:40.810Z,75.21
2023-02-22T03:40:14.402Z,76.26
2023-02-22T03:42:53.504Z,77.18
2023-02-22T03:45:26.884Z,76.79
2023-02-22T03:48:02.965Z,77.69
2023-02-22T03:50:36.759Z,77.22
2023-02-22T03:53:04.967Z,78.23
2023-02-22T03:55:34.960Z,78.39
2023-02-22T03:58:09.197Z,77.68
2023-02-22T04:00:36.301Z,78.30
2023-02-22T04:03:03.393Z,77.02
2023-02-22T04:05:30.235Z,77.28
2023-02-22T04:07:58.528Z,76.70
2023-02-22T04:10:26.341Z,76.53
2023-02-22T04:12:52.979Z,76.67
2023-02-22T04:15:23.337Z,76.96
2023-02-22T04:17:52.973Z,76.63
2023-02-22T04:20:20.154Z,76.59
2023-02-22T04:22:59.686Z,76.50
2023-02-22T04:25:26.334Z,76.25
2023-02-22T04:27:53.042Z,75.76
2023-02-22T04:30:29.449Z,76.05
2023-02-22T04:32:57.254Z,76.13
2023-02-22T04:35:23.827Z,75.85
2023-02-22T04:37:50.222Z,75.81
2023-02-22T04:40:17.892Z,76.76
2023-02-22T04:42:44.739Z,78.19
2023-02-22T04:45:11.689Z,78.84
2023-02-22T04:47:39.177Z,79.25
2023-02-22T04:50:07.912Z,79.66
2023-02-22T04:52:34.432Z,79.56
2023-02-22T04:55:01.335Z,79.40
2023-02-22T04:57:27.943Z,79.60
2023-02-22T04:59:55.356Z,79.66
2023-02-22T05:02:23.714Z,79.50
2023-02-22T05:04:50.654Z,79.08
2023-02-22T05:07:17.913Z,79.05
2023-02-22T05:09:44.419Z,78.84
2023-02-22T05:12:10.901Z,78.33
2023-02-22T05:14:37.521Z,78.46
2023-02-22T05:17:04.484Z,78.77
2023-02-22T05:19:30.983Z,78.42
2023-02-22T05:21:57.679Z,78.86
2023-02-22T05:24:24.103Z,78.80
2023-02-22T05:26:51.380Z,78.99
2023-02-22T05:29:17.980Z,78.22
2023-02-22T05:31:44.493Z,78.18
2023-02-22T05:34:11.017Z,78.14
2023-02-22T05:36:37.607Z,78.03
2023-02-22T05:39:05.332Z,77.43
2023-02-22T05:41:31.781Z,77.68
2023-02-22T05:43:58.242Z,77.42
2023-02-22T05:46:25.113Z,77.43
2023-02-22T05:48:51.515Z,77.50
2023-02-22T05:51:19.531Z,77.63
2023-02-22T05:53:46.094Z,77.97
2023-02-22T05:56:12.513Z,77.83
2023-02-22T05:58:38.920Z,77.27
2023-02-22T06:01:05.529Z,77.92
2023-02-22T06:03:31.957Z,77.97
2023-02-22T06:05:58.414Z,77.52
2023-02-22T06:08:24.837Z,77.95
2023-02-22T06:10:51.318Z,78.23
2023-02-22T06:13:17.764Z,77.88
2023-02-22T06:15:44.231Z,78.41
2023-02-22T06:18:10.988Z,78.28
2023-02-22T06:20:37.479Z,78.55
2023-02-22T06:23:03.900Z,78.39
2023-02-22T06:25:31.373Z,77.88
2023-02-22T06:27:59.404Z,78.28
2023-02-22T06:30:27.034Z,77.66
2023-02-22T06:32:53.842Z,78.10
2023-02-22T06:35:21.113Z,78.21
2023-02-22T06:37:47.745Z,78.15
2023-02-22T06:40:15.695Z,78.74
2023-02-22T06:42:42.505Z,78.23
2023-02-22T06:45:09.863Z,78.33
2023-02-22T06:47:41.218Z,78.33
2023-02-22T06:50:08.214Z,78.38
2023-02-22T06:52:34.598Z,78.36
2023-02-22T06:55:01.045Z,78.04
2023-02-22T06:57:27.536Z,79.03
2023-02-22T06:59:53.939Z,79.27
2023-02-22T07:02:20.325Z,79.45
2023-02-22T07:04:46.769Z,79.91
2023-02-22T07:07:13.154Z,81.17
2023-02-22T07:09:39.545Z,81.69
2023-02-22T07:12:07.179Z,81.69
2023-02-22T07:14:33.625Z,82.05
2023-02-22T07:17:00.036Z,82.74
2023-02-22T07:19:26.535Z,83.13
2023-02-22T07:21:59.042Z,83.41
2023-02-22T07:24:28.262Z,83.48
2023-02-22T07:26:54.824Z,82.75
2023-02-22T07:29:22.403Z,83.64
2023-02-22T07:31:49.217Z,83.52
2023-02-22T07:34:15.620Z,83.21
2023-02-22T07:36:42.013Z,83.09
2023-02-22T07:39:08.723Z,83.09
2023-02-22T07:41:35.338Z,83.29
2023-02-22T07:44:01.836Z,82.92
2023-02-22T07:46:28.301Z,83.34
2023-02-22T07:48:54.732Z,83.16
2023-02-22T07:51:21.286Z,83.15
2023-02-22T07:53:48.666Z,83.98
2023-02-22T07:56:15.808Z,84.29
2023-02-22T07:58:42.202Z,84.54
2023-02-22T08:01:08.859Z,83.88
2023-02-22T08:03:36.747Z,84.36
2023-02-22T08:06:05.903Z,84.06
2023-02-22T08:08:32.642Z,84.01
2023-02-22T08:10:59.105Z,83.77
2023-02-22T08:13:25.641Z,84.26
2023-02-22T08:15:53.882Z,84.38
2023-02-22T08:18:22.401Z,84.00
2023-02-22T08:20:50.373Z,84.47
2023-02-22T08:23:18.930Z,83.45
2023-02-22T08:25:45.401Z,83.34
2023-02-22T08:28:15.140Z,83.63
2023-02-22T08:30:45.267Z,83.23
2023-02-22T08:33:15.173Z,82.82
2023-02-22T08:35:41.917Z,82.87
2023-02-22T08:38:15.086Z,82.04
2023-02-22T08:40:41.511Z,82.31
2023-02-22T08:43:07.917Z,81.79
2023-02-22T08:45:34.663Z,81.56
2023-02-22T08:48:02.226Z,80.62
2023-02-22T08:50:33.412Z,80.55
2023-02-22T08:53:01.715Z,80.00
2023-02-22T08:55:32.182Z,78.96
2023-02-22T08:58:01.142Z,78.01
2023-02-22T09:00:29.524Z,77.37
2023-02-22T09:02:56.435Z,76.40
2023-02-22T09:05:23.140Z,75.25
2023-02-22T09:07:49.719Z,74.37
2023-02-22T09:10:24.935Z,72.48
2023-02-22T09:12:52.568Z,70.72
2023-02-22T09:15:19.339Z,69.06
2023-02-22T09:17:46.080Z,67.42
2023-02-22T09:20:12.896Z,65.73
2023-02-22T09:22:40.371Z,64.26
2023-02-22T09:25:16.209Z,63.17
2023-02-22T09:27:44.239Z,61.54
2023-02-22T09:30:23.921Z,60.42
2023-02-22T09:32:56.323Z,58.38
2023-02-22T09:35:29.400Z,57.98
2023-02-22T09:37:58.420Z,57.65
2023-02-22T09:40:29.594Z,57.34
2023-02-22T09:43:07.287Z,57.39
2023-02-22T09:46:24.611Z,57.67
2023-02-22T09:49:05.973Z,58.14
2023-02-22T09:51:41.427Z,57.86
2023-02-22T09:54:18.160Z,58.01
2023-02-22T09:56:46.972Z,58.40
2023-02-22T09:59:21.696Z,58.75
2023-02-22T10:01:53.946Z,58.85
2023-02-22T10:04:35.604Z,58.25
2023-02-22T10:07:12.271Z,57.73
2023-02-22T10:09:45.000Z,56.47
2023-02-22T10:12:19.831Z,55.58
2023-02-22T10:15:07.548Z,53.70
2023-02-22T10:17:58.857Z,52.38
2023-02-22T10:20:37.200Z,51.65
2023-02-22T10:23:25.736Z,51.92
2023-02-22T10:25:57.366Z,51.66
2023-02-22T10:28:31.589Z,52.44
2023-02-22T10:31:05.770Z,52.40
2023-02-22T10:33:39.405Z,51.75
2023-02-22T10:36:07.529Z,51.52
2023-02-22T10:38:35.402Z,52.32
2023-02-22T10:41:23.683Z,52.49
2023-02-22T10:43:50.321Z,53.11
2023-02-22T10:46:20.950Z,50.21
2023-02-22T10:48:51.506Z,49.38
2023-02-22T10:51:18.016Z,48.17
2023-02-22T10:53:53.492Z,47.25
2023-02-22T10:56:26.704Z,45.54
2023-02-22T10:58:59.492Z,45.46
2023-02-22T11:01:28.886Z,45.29
2023-02-22T11:04:10.580Z,44.71
2023-02-22T11:06:38.511Z,43.92
2023-02-22T11:09:22.438Z,44.22
2023-02-22T11:11:50.719Z,45.19
2023-02-22T11:14:28.922Z,46.43
2023-02-22T11:16:57.335Z,47.55
2023-02-22T11:19:29.431Z,48.57
2023-02-22T11:22:05.947Z,48.70
2023-02-22T11:24:43.564Z,48.10
2023-02-22T11:27:38.091Z,48.48
2023-02-22T11:30:16.813Z,48.85
2023-02-22T11:32:46.679Z,49.29
2023-02-22T11:35:38.854Z,49.86
2023-02-22T11:38:28.251Z,50.25
2023-02-22T11:41:16.080Z,49.57
2023-02-22T11:43:45.384Z,49.10
2023-02-22T11:46:16.927Z,49.00
2023-02-22T11:48:57.563Z,48.34
2023-02-22T11:51:47.563Z,47.87
2023-02-22T11:54:29.032Z,48.71
2023-02-22T11:57:39.074Z,48.13
2023-02-22T12:00:33.400Z,47.12
2023-02-22T12:03:34.432Z,44.66
2023-02-22T12:06:00.867Z,45.22
2023-02-22T12:08:45.583Z,45.90
2023-02-22T12:11:27.165Z,46.07
2023-02-22T12:14:12.004Z,46.83
2023-02-22T12:16:38.634Z,46.80
2023-02-22T12:19:27.429Z,47.71
2023-02-22T12:22:03.391Z,48.08
2023-02-22T12:25:23.340Z,48.25
2023-02-22T12:27:55.907Z,48.58
2023-02-22T12:30:28.807Z,48.99
2023-02-22T12:32:59.685Z,49.65
2023-02-22T12:35:37.866Z,49.67
2023-02-22T12:38:16.831Z,50.10
2023-02-22T12:41:13.905Z,50.27
2023-02-22T12:43:48.521Z,50.07
2023-02-22T12:46:24.340Z,49.46
2023-02-22T12:48:53.805Z,50.13
2023-02-22T12:51:46.072Z,50.57
2023-02-22T12:54:34.237Z,50.49
2023-02-22T12:57:11.801Z,50.75
2023-02-22T12:59:47.776Z,50.94
2023-02-22T13:02:36.889Z,50.75
2023-02-22T13:05:03.495Z,50.71
2023-02-22T13:07:42.861Z,50.39
2023-02-22T13:10:36.514Z,50.48
2023-02-22T13:13:21.494Z,50.83
2023-02-22T13:16:00.582Z,50.86
2023-02-22T13:18:35.065Z,51.30
2023-02-22T13:21:09.631Z,51.05
2023-02-22T13:24:05.214Z,52.00
2023-02-22T13:26:47.476Z,51.93
2023-02-22T13:29:28.378Z,52.55
2023-02-22T13:32:24.815Z,52.76
2023-02-22T13:35:12.766Z,52.99
2023-02-22T13:37:48.266Z,52.91
2023-02-22T13:40:23.850Z,53.33
2023-02-22T13:43:38.455Z,53.28
2023-02-22T13:46:22.888Z,53.71
2023-02-22T13:49:25.653Z,53.71
2023-02-22T13:52:13.641Z,53.71
2023-02-22T13:54:54.370Z,54.40
2023-02-22T13:57:27.561Z,54.38
2023-02-22T14:00:15.824Z,54.40
2023-02-22T14:03:24.018Z,54.45
2023-02-22T14:05:53.026Z,55.05
2023-02-22T14:08:19.477Z,54.86
2023-02-22T14:10:55.880Z,55.26
2023-02-22T14:13:26.558Z,55.15
2023-02-22T14:16:08.093Z,55.70
2023-02-22T14:18:46.390Z,56.14
2023-02-22T14:21:14.304Z,56.56
2023-02-22T14:23:43.274Z,56.69
2023-02-22T14:26:29.775Z,56.84
2023-02-22T14:29:08.188Z,57.15
2023-02-22T14:31:57.372Z,57.24
2023-02-22T14:34:53.871Z,57.86
2023-02-22T14:37:25.870Z,57.86
2023-02-22T14:39:52.246Z,58.45
2023-02-22T14:42:21.471Z,58.07
2023-02-22T14:44:54.005Z,58.32
2023-02-22T14:47:29.567Z,58.35
2023-02-22T14:50:08.033Z,58.02
2023-02-22T14:52:38.421Z,58.32
2023-02-22T14:55:26.188Z,58.06
2023-02-22T14:58:18.674Z,57.24
2023-02-22T15:00:47.886Z,55.76
2023-02-22T15:03:37.222Z,53.76
2023-02-22T15:06:14.843Z,52.94
2023-02-22T15:08:46.409Z,53.69
2023-02-22T15:11:32.465Z,53.51
2023-02-22T15:14:00.894Z,53.21
2023-02-22T15:16:31.991Z,53.38
2023-02-22T15:19:03.454Z,53.42
2023-02-22T15:21:31.849Z,53.51
2023-02-22T15:24:01.292Z,53.24
2023-02-22T15:26:37.159Z,52.95
2023-02-22T15:29:15.562Z,52.65
2023-02-22T15:31:48.554Z,51.96
2023-02-22T15:34:15.063Z,52.17
2023-02-22T15:36:43.337Z,51.58
2023-02-22T15:39:29.248Z,50.78
2023-02-22T15:42:07.767Z,50.55
2023-02-22T15:44:39.486Z,51.02
2023-02-22T15:47:07.217Z,51.42
2023-02-22T15:49:37.707Z,51.05
2023-02-22T15:52:23.936Z,52.07
2023-02-22T15:54:51.988Z,52.17
2023-02-22T15:57:21.232Z,52.87
2023-02-22T15:59:52.822Z,53.76
2023-02-22T16:02:30.040Z,53.95
2023-02-22T16:05:12.137Z,54.79
2023-02-22T16:07:45.588Z,55.24
2023-02-22T16:10:25.468Z,55.64
2023-02-22T16:13:09.120Z,57.02
2023-02-22T16:15:36.982Z,57.53
2023-02-22T16:18:26.239Z,58.42
2023-02-22T16:21:04.838Z,58.33
2023-02-22T16:23:33.532Z,58.61
2023-02-22T16:26:27.841Z,59.09
2023-02-22T16:29:00.054Z,59.76
2023-02-22T16:31:35.269Z,60.29
2023-02-22T16:34:03.578Z,60.93
2023-02-22T16:36:39.612Z,61.19
2023-02-22T16:39:08.577Z,61.48
2023-02-22T16:41:35.085Z,61.71
2023-02-22T16:44:01.885Z,62.12
2023-02-22T16:46:28.436Z,62.44
2023-02-22T16:48:54.900Z,62.19
2023-02-22T16:51:25.628Z,63.06
2023-02-22T16:53:56.781Z,63.04
2023-02-22T16:56:30.784Z,62.95
2023-02-22T16:59:00.608Z,63.17
2023-02-22T17:01:27.054Z,63.25
2023-02-22T17:03:56.325Z,63.61
2023-02-22T17:06:22.829Z,63.67
2023-02-22T17:08:51.882Z,63.81
2023-02-22T17:11:18.847Z,63.76
2023-02-22T17:13:47.172Z,63.90
2023-02-22T17:16:14.837Z,63.52
2023-02-22T17:18:41.513Z,63.57
2023-02-22T17:21:11.091Z,63.73
2023-02-22T17:23:37.789Z,63.88
2023-02-22T17:26:04.434Z,63.86
2023-02-22T17:28:31.370Z,63.54
2023-02-22T17:31:01.332Z,63.87
2023-02-22T17:33:31.010Z,64.00
2023-02-22T17:35:58.992Z,63.93
2023-02-22T17:38:28.785Z,63.92
2023-02-22T17:40:56.117Z,64.10
2023-02-22T17:43:23.267Z,64.33
2023-02-22T17:45:49.960Z,64.38
2023-02-22T17:48:18.265Z,64.30
2023-02-22T17:50:46.576Z,64.08
2023-02-22T17:53:13.706Z,64.40
2023-02-22T17:55:42.293Z,63.99
2023-02-22T17:58:14.546Z,63.96
2023-02-22T18:00:49.910Z,64.01
2023-02-22T18:03:25.333Z,64.21
2023-02-22T18:05:56.113Z,64.07
2023-02-22T18:08:24.441Z,63.93
2023-02-22T18:10:56.444Z,64.57
2023-02-22T18:13:25.268Z,64.58
2023-02-22T18:15:52.247Z,64.43
2023-02-22T18:18:18.931Z,64.75
2023-02-22T18:20:47.133Z,64.85
2023-02-22T18:23:16.319Z,65.27
2023-02-22T18:26:07.599Z,65.24
2023-02-22T18:28:36.027Z,65.24
2023-02-22T18:31:07.057Z,65.92
2023-02-22T18:33:33.452Z,65.89
2023-02-22T18:35:59.876Z,66.21
2023-02-22T18:38:26.415Z,66.45
2023-02-22T18:41:05.066Z,66.85
2023-02-22T18:43:34.136Z,66.56
2023-02-22T18:46:19.291Z,66.53
2023-02-22T18:48:52.894Z,66.54
2023-02-22T18:51:19.341Z,67.04
2023-02-22T18:53:47.761Z,67.48
2023-02-22T18:56:21.456Z,67.77
2023-02-22T18:58:48.668Z,67.85
2023-02-22T19:01:18.108Z,67.87
2023-02-22T19:03:47.046Z,68.71
2023-02-22T19:06:14.979Z,68.48
2023-02-22T19:08:43.224Z,68.16
2023-02-22T19:11:19.248Z,68.52
2023-02-22T19:13:50.747Z,68.19
2023-02-22T19:16:20.678Z,68.09
2023-02-22T19:18:49.162Z,68.47
2023-02-22T19:21:16.476Z,68.09
2023-02-22T19:23:46.005Z,68.32
2023-02-22T19:26:24.281Z,68.34
2023-02-22T19:28:52.967Z,68.13
2023-02-22T19:31:26.261Z,67.83
2023-02-22T19:33:52.923Z,68.59
2023-02-22T19:36:22.870Z,68.23
2023-02-22T19:38:49.298Z,68.61
2023-02-22T19:41:18.622Z,68.28
2023-02-22T19:43:46.898Z,68.65
2023-02-22T19:46:13.482Z,68.52
2023-02-22T19:48:41.177Z,68.64
2023-02-22T19:51:13.133Z,69.47
2023-02-22T19:53:40.996Z,69.27
2023-02-22T19:56:16.166Z,69.21
2023-02-22T19:58:44.842Z,69.74
2023-02-22T20:01:23.897Z,69.24
2023-02-22T20:04:05.101Z,69.53
2023-02-22T20:06:41.548Z,70.17
2023-02-22T20:09:11.261Z,70.04
2023-02-22T20:11:38.130Z,70.34
2023-02-22T20:14:06.332Z,70.44
2023-02-22T20:16:34.549Z,70.97
2023-02-22T20:19:01.207Z,71.20
2023-02-22T20:21:30.790Z,71.15
2023-02-22T20:23:59.236Z,71.03
2023-02-22T20:26:27.875Z,71.72
2023-02-22T20:28:54.543Z,71.27
2023-02-22T20:31:21.861Z,71.79
2023-02-22T20:33:52.885Z,72.54
2023-02-22T20:36:22.124Z,72.55
2023-02-22T20:38:52.371Z,73.03
2023-02-22T20:41:26.942Z,72.28
2023-02-22T20:43:55.115Z,71.98
2023-02-22T20:46:23.706Z,72.44
2023-02-22T20:48:54.516Z,73.11
2023-02-22T20:51:21.326Z,72.77
2023-02-22T20:53:48.868Z,72.83
2023-02-22T20:56:18.871Z,72.92
2023-02-22T20:58:45.767Z,73.08
2023-02-22T21:01:14.093Z,73.28
2023-02-22T21:03:43.973Z,72.77
2023-02-22T21:06:17.536Z,73.51
2023-02-22T21:08:45.769Z,73.60
2023-02-22T21:11:14.580Z,74.04
2023-02-22T21:13:41.732Z,73.21
2023-02-22T21:16:10.353Z,74.01
2023-02-22T21:18:37.243Z,74.16
2023-02-22T21:21:10.246Z,74.35
2023-02-22T21:23:37.509Z,74.71
2023-02-22T21:26:04.565Z,74.44
2023-02-22T21:28:50.457Z,74.15
2023-02-22T21:31:19.047Z,74.79
2023-02-22T21:33:49.384Z,74.89
2023-02-22T21:36:16.089Z,74.81
2023-02-22T21:38:44.684Z,75.00
2023-02-22T21:41:16.088Z,75.29
2023-02-22T21:43:43.921Z,74.78
2023-02-22T21:46:11.055Z,75.68
2023-02-22T21:48:39.059Z,75.02
2023-02-22T21:51:13.735Z,74.75
2023-02-22T21:53:45.810Z,75.05
2023-02-22T21:56:22.910Z,75.55
2023-02-22T21:58:58.940Z,75.45
2023-02-22T22:01:30.874Z,75.85
2023-02-22T22:03:59.801Z,75.71
2023-02-22T22:06:28.114Z,75.86
2023-02-22T22:08:55.010Z,75.74
2023-02-22T22:11:21.962Z,76.02
2023-02-22T22:13:49.101Z,75.87
2023-02-22T22:16:18.516Z,75.97
2023-02-22T22:18:46.750Z,75.87
2023-02-22T22:21:17.729Z,75.67
2023-02-22T22:23:46.928Z,76.69
2023-02-22T22:26:19.892Z,76.22
2023-02-22T22:28:51.905Z,76.33
2023-02-22T22:31:20.732Z,76.58
2023-02-22T22:33:47.691Z,76.32
2023-02-22T22:36:16.428Z,77.25
2023-02-22T22:38:46.881Z,76.45
2023-02-22T22:41:15.200Z,76.79
2023-02-22T22:43:45.872Z,76.33
2023-02-22T22:46:17.219Z,76.83
2023-02-22T22:48:46.641Z,77.15
2023-02-22T22:51:16.694Z,76.53
2023-02-22T22:53:45.338Z,77.01
2023-02-22T22:56:18.275Z,77.08
2023-02-22T22:58:53.012Z,77.17
2023-02-22T23:01:26.906Z,77.39
2023-02-22T23:03:58.192Z,77.05
2023-02-22T23:06:28.020Z,76.96
2023-02-22T23:09:11.408Z,77.33
2023-02-22T23:11:44.391Z,77.02
2023-02-22T23:14:26.534Z,77.23
2023-02-22T23:16:59.862Z,77.08
2023-02-22T23:19:26.370Z,76.80
2023-02-22T23:21:52.839Z,77.93
2023-02-22T23:24:21.024Z,77.45
2023-02-22T23:26:50.781Z,78.04
2023-02-22T23:29:20.009Z,78.50
2023-02-22T23:31:48.494Z,78.20
2023-02-22T23:34:20.970Z,78.96
2023-02-22T23:36:47.668Z,78.60
2023-02-22T23:39:15.664Z,79.24
2023-02-22T23:41:42.500Z,78.85
2023-02-22T23:44:17.438Z,78.91
2023-02-22T23:46:47.872Z,79.19
2023-02-22T23:49:19.950Z,78.66
2023-02-22T23:51:47.247Z,78.81
2023-02-22T23:54:19.101Z,78.19
2023-02-22T23:56:58.372Z,78.34
2023-02-22T23:59:26.819Z,78.79
